Airfield :







YOU CAN JOIN US ON...

 
LOGIN :

Register | Disclaimer

   EN    FR    IT 

 









Legend :    VFR   Marginal VFR   IFR   Intensive IFR   Very Intensive IFR
Visi :
Ceiling :
>= 8 km
>= 3000ft
5 to 8 km
1000 to 3000 ft
1500m to 5 km
500 to 1000 ft
800 to 1500m
200 to 500 ft
< 800m
< 200 ft
Symbols :   Thunderstorms  Fog  Heavy snow  Heavy precipitations  Wind > 20 kt







- Airport Elevation : 68 ft
- IATA code : YFC


CYFC - Fredericton

CURRENT METAR :
  • 150700Z AUTO 20007KT 170V240 9SM OVC011 16/14 A3001 RMK SLP166

EXPIRED METARs :
  • 150600Z AUTO 20005KT 9SM OVC013 15/14 A3003 RMK SLP171
  • 150500Z AUTO 21006KT 180V300 9SM OVC013 15/14 A3005 RMK SLP178

TAF TAF CYFC
Valid from the 15 at 06:00 until the 15 at 18:00 UTC


150538Z 1506/1518 20008KT P6SM -SHRA OVC015
TEMPO 1506/1512 P6SM NSW OVC025
FM151200 22008KT P6SM BKN020 BKN040
TEMPO 1512/1514 SCT020 BKN040
FM151400 25010G20KT P6SM BKN040 RMK FCST BASED ON AUTO OBS. NXT FCST BY 151200Z
No reported NOTAMs for that airfield.



MET'MAP, your aeronautical weather chart ! - Copyright ORBIFLY December 2007 - Disclaimer

ORBIFLY MET'MAP TEAM :

Programming & Development : Alexandra Zaïnal
Concept & Development : Baudouin d'Aumeries
Co-Development & Prog : Marc-Olivier Méhu
Technical & hardware support : Manuel Goepfert

Contact : metmap@orbifly.com




SOURCES & CREDITS :

   NOAA